Time;durP1;ratioP1;P1;durP2;ratioP2;P2;SDS_P1;SDS_P2;PMS_P1;PMS_P2;Temp;Humidity;BMP_temperature;BMP_pressure;BME280_temperature;BME280_humidity;BME280_pressure;Samples;Min_cycle;Max_cycle;Signal;HPM_P1;HPM_P2
2022/04/29 00:01:28;;;;;;;6.68;3.20;;;9.20;99.90;;;;;;5062954;28;20111;-83
2022/04/29 00:03:53;;;;;;;4.82;2.83;;;9.20;99.90;;;;;;5072454;28;20032;-82
2022/04/29 00:06:22;;;;;;;7.03;3.50;;;9.20;99.90;;;;;;5073512;28;20101;-81
2022/04/29 00:08:48;;;;;;;5.95;3.08;;;9.10;99.90;;;;;;5060024;28;20071;-82
2022/04/29 00:11:14;;;;;;;7.72;3.20;;;9.10;99.90;;;;;;5083271;28;20029;-83
2022/04/29 00:13:39;;;;;;;5.95;3.25;;;9.00;99.90;;;;;;5066566;28;20032;-83
2022/04/29 00:16:05;;;;;;;7.28;3.50;;;9.00;99.90;;;;;;5086625;28;20019;-84
2022/04/29 00:18:31;;;;;;;7.93;3.42;;;9.00;99.90;;;;;;5086628;28;20032;-83
2022/04/29 00:20:59;;;;;;;6.70;2.83;;;8.90;99.90;;;;;;5078939;28;20364;-83
2022/04/29 00:23:25;;;;;;;6.43;3.70;;;8.90;99.90;;;;;;5073241;28;20035;-82
2022/04/29 00:25:50;;;;;;;5.35;2.90;;;8.90;99.90;;;;;;5090873;28;20402;-83
2022/04/29 00:28:16;;;;;;;11.88;3.80;;;8.90;99.90;;;;;;5072402;28;20020;-84
2022/04/29 00:30:42;;;;;;;6.53;3.72;;;8.90;99.90;;;;;;5089551;28;20393;-84
2022/04/29 00:33:08;;;;;;;7.55;3.65;;;8.90;99.90;;;;;;5074199;28;20050;-84
2022/04/29 00:35:34;;;;;;;7.07;3.72;;;8.90;99.90;;;;;;5091401;28;20081;-83
2022/04/29 00:38:00;;;;;;;7.30;4.10;;;8.70;99.90;;;;;;5079698;28;20023;-83
2022/04/29 00:40:28;;;;;;;6.15;3.95;;;8.70;99.90;;;;;;5088714;28;20028;-84
2022/04/29 00:42:54;;;;;;;8.77;3.42;;;8.70;99.90;;;;;;5090156;28;20020;-83
2022/04/29 00:45:21;;;;;;;7.22;3.65;;;8.60;99.90;;;;;;5090475;28;20439;-82
2022/04/29 00:47:48;;;;;;;6.68;3.92;;;8.60;99.90;;;;;;5072968;28;20098;-82
2022/04/29 00:50:18;;;;;;;10.52;3.78;;;8.60;99.90;;;;;;5086786;28;20030;-82
2022/04/29 00:52:47;;;;;;;8.90;4.15;;;8.60;99.90;;;;;;5070525;28;20488;-84
2022/04/29 00:55:14;;;;;;;9.00;4.22;;;8.50;99.90;;;;;;5053574;28;20023;-83
2022/04/29 00:57:57;;;;;;;7.45;4.28;;;8.50;99.90;;;;;;5066489;28;20397;-84
2022/04/29 01:00:23;;;;;;;8.77;4.70;;;8.50;99.90;;;;;;5072538;28;20052;-82
2022/04/29 01:02:51;;;;;;;5.95;4.05;;;8.40;99.90;;;;;;5059901;28;20432;-84
2022/04/29 01:05:20;;;;;;;8.82;4.28;;;8.40;99.90;;;;;;5064328;28;20028;-84
2022/04/29 01:07:48;;;;;;;7.78;4.20;;;8.40;99.90;;;;;;5066774;28;20364;-82
2022/04/29 01:10:15;;;;;;;7.45;4.40;;;8.40;99.90;;;;;;5078677;28;20058;-82
2022/04/29 01:12:43;;;;;;;6.95;4.75;;;8.30;99.90;;;;;;5068875;28;20028;-83
2022/04/29 01:15:14;;;;;;;10.13;5.25;;;8.30;99.90;;;;;;5077605;28;20108;-82
2022/04/29 01:17:43;;;;;;;9.27;4.97;;;8.30;99.90;;;;;;5074882;28;20135;-83
2022/04/29 01:20:11;;;;;;;7.07;4.90;;;8.30;99.90;;;;;;5081114;28;20024;-83
2022/04/29 01:22:37;;;;;;;8.50;4.78;;;8.30;99.90;;;;;;5057239;28;20687;-82
2022/04/29 01:25:03;;;;;;;7.97;5.25;;;8.20;99.90;;;;;;5062740;28;20024;-82
2022/04/29 01:27:29;;;;;;;8.80;5.47;;;8.20;99.90;;;;;;5081434;28;20104;-83
2022/04/29 01:30:07;;;;;;;9.35;5.80;;;8.20;99.90;;;;;;5082382;28;20103;-82
2022/04/29 01:32:37;;;;;;;9.68;4.97;;;8.20;99.90;;;;;;5081914;28;20137;-84
2022/04/29 01:35:04;;;;;;;10.15;5.00;;;8.20;99.90;;;;;;5084982;28;20020;-82
2022/04/29 01:37:30;;;;;;;10.23;6.07;;;8.20;99.90;;;;;;5067130;28;20108;-83
2022/04/29 01:39:56;;;;;;;12.32;5.90;;;8.20;99.90;;;;;;5086708;28;20053;-83
2022/04/29 01:42:22;;;;;;;10.38;6.07;;;8.20;99.90;;;;;;5064831;28;20514;-83
2022/04/29 01:44:47;;;;;;;9.18;5.63;;;8.10;99.90;;;;;;5087379;28;20022;-84
2022/04/29 01:47:14;;;;;;;8.05;5.40;;;8.10;99.90;;;;;;5084312;28;20067;-85
2022/04/29 01:49:40;;;;;;;8.18;5.55;;;8.10;99.90;;;;;;5072567;28;20046;-84
2022/04/29 01:52:06;;;;;;;11.95;5.93;;;8.10;99.90;;;;;;5081648;28;20028;-83
2022/04/29 01:54:34;;;;;;;10.70;6.38;;;8.10;99.90;;;;;;5089567;28;21249;-84
2022/04/29 01:57:00;;;;;;;11.55;6.22;;;8.00;99.90;;;;;;5082716;28;20025;-84
2022/04/29 01:59:27;;;;;;;9.60;6.22;;;8.00;99.90;;;;;;5067555;28;20024;-85
2022/04/29 02:01:53;;;;;;;9.52;5.63;;;8.00;99.90;;;;;;5077381;28;20404;-87
2022/04/29 02:04:18;;;;;;;10.52;6.18;;;8.00;99.90;;;;;;5060649;28;20032;-84
2022/04/29 02:06:44;;;;;;;10.27;6.40;;;8.00;99.90;;;;;;5073138;28;20039;-85
2022/04/29 02:09:12;;;;;;;9.35;5.40;;;8.00;99.90;;;;;;5089007;28;20395;-85
2022/04/29 02:11:38;;;;;;;7.47;5.10;;;7.90;99.90;;;;;;5082427;28;20093;-87
2022/04/29 02:14:03;;;;;;;12.25;6.60;;;8.00;99.90;;;;;;5085001;28;20510;-85
2022/04/29 02:16:29;;;;;;;10.80;5.90;;;7.90;99.90;;;;;;5081146;28;20355;-84
2022/04/29 02:18:55;;;;;;;9.93;6.75;;;7.90;99.90;;;;;;5082780;28;20021;-84
2022/04/29 02:21:21;;;;;;;9.98;6.05;;;7.90;99.90;;;;;;5065640;28;20103;-83
2022/04/29 02:23:47;;;;;;;11.55;6.65;;;7.90;99.90;;;;;;5078933;28;20040;-83
2022/04/29 02:26:13;;;;;;;10.70;6.65;;;7.90;99.90;;;;;;5088474;28;20028;-84
2022/04/29 02:28:39;;;;;;;9.95;6.55;;;7.90;99.90;;;;;;5058736;28;20012;-85
2022/04/29 02:31:04;;;;;;;12.13;6.72;;;7.90;99.90;;;;;;5067794;28;20024;-85
2022/04/29 02:33:30;;;;;;;10.32;6.03;;;7.80;99.90;;;;;;5082883;28;20366;-87
2022/04/29 02:35:56;;;;;;;10.88;6.10;;;7.80;99.90;;;;;;5060623;28;20020;-84
2022/04/29 02:38:22;;;;;;;9.45;5.80;;;7.80;99.90;;;;;;5090086;28;20024;-85
2022/04/29 02:40:51;;;;;;;7.72;5.95;;;7.80;99.90;;;;;;5061890;28;20474;-85
2022/04/29 02:43:17;;;;;;;10.77;5.97;;;7.80;99.90;;;;;;5067054;28;20031;-86
2022/04/29 02:45:44;;;;;;;10.95;6.65;;;7.80;99.90;;;;;;5074405;28;20076;-86
2022/04/29 02:48:10;;;;;;;10.90;6.00;;;7.90;99.90;;;;;;5071599;28;20027;-85
2022/04/29 02:50:36;;;;;;;9.60;7.15;;;7.90;99.90;;;;;;5076145;28;20031;-86
2022/04/29 02:53:02;;;;;;;9.50;5.75;;;7.90;99.90;;;;;;5087294;28;20470;-87
2022/04/29 02:55:27;;;;;;;9.77;6.05;;;7.90;99.90;;;;;;5083982;28;20043;-86
2022/04/29 02:57:53;;;;;;;9.55;5.97;;;7.90;99.90;;;;;;5079407;28;20470;-83
2022/04/29 03:00:19;;;;;;;8.85;5.35;;;7.90;99.90;;;;;;5096540;28;20070;-85
2022/04/29 03:02:44;;;;;;;10.15;6.25;;;7.90;99.90;;;;;;5079643;28;20058;-86
2022/04/29 03:05:10;;;;;;;9.23;5.93;;;7.90;99.90;;;;;;5088652;28;20024;-85
2022/04/29 03:07:36;;;;;;;12.27;6.57;;;7.90;99.90;;;;;;5068437;28;20035;-85
2022/04/29 03:10:02;;;;;;;9.75;5.97;;;7.90;99.90;;;;;;5077342;28;20114;-84
2022/04/29 03:12:27;;;;;;;10.32;6.25;;;7.80;99.90;;;;;;5071817;28;20036;-86
2022/04/29 03:14:53;;;;;;;9.65;6.10;;;7.80;99.90;;;;;;5061403;28;20115;-85
2022/04/29 03:20:04;;;;;;;13.20;7.88;;;7.80;99.90;;;;;;5092282;28;20079;-85
2022/04/29 03:22:30;;;;;;;16.15;7.03;;;7.70;99.90;;;;;;5074102;28;20018;-85
2022/04/29 03:24:56;;;;;;;10.82;6.75;;;7.70;99.90;;;;;;5092568;28;20020;-86
2022/04/29 03:27:21;;;;;;;13.07;6.85;;;7.70;99.90;;;;;;5074201;28;20016;-86
2022/04/29 03:29:47;;;;;;;10.07;7.45;;;7.70;99.90;;;;;;5081956;28;20543;-86
2022/04/29 03:32:13;;;;;;;10.73;6.32;;;7.70;99.90;;;;;;5074020;28;20562;-85
2022/04/29 03:34:39;;;;;;;10.25;6.50;;;7.60;99.90;;;;;;5092351;28;20489;-86
2022/04/29 03:37:05;;;;;;;13.25;7.18;;;7.60;99.90;;;;;;5075475;28;20024;-84
2022/04/29 03:39:31;;;;;;;12.43;7.55;;;7.60;99.90;;;;;;5084023;28;20024;-83
2022/04/29 03:41:56;;;;;;;15.02;7.63;;;7.60;99.90;;;;;;5077908;28;20031;-84
2022/04/29 03:44:22;;;;;;;14.13;7.28;;;7.60;99.90;;;;;;5088155;28;20470;-83
2022/04/29 03:46:48;;;;;;;11.23;6.97;;;7.60;99.90;;;;;;5077996;28;20390;-83
2022/04/29 03:51:58;;;;;;;10.93;6.75;;;7.60;99.90;;;;;;5090756;28;20564;-83
2022/04/29 03:54:23;;;;;;;13.45;7.47;;;7.50;99.90;;;;;;5091315;28;20028;-85
2022/04/29 03:56:49;;;;;;;11.70;7.30;;;7.50;99.90;;;;;;5077723;28;20020;-84
2022/04/29 03:59:15;;;;;;;14.88;7.32;;;7.50;99.90;;;;;;5074498;28;20020;-85
2022/04/29 04:01:42;;;;;;;13.68;7.43;;;7.50;99.90;;;;;;5082501;28;20031;-83
2022/04/29 04:04:08;;;;;;;12.27;6.95;;;7.40;99.90;;;;;;5075780;28;20505;-84
2022/04/29 04:06:52;;;;;;;8.15;6.57;;;7.50;99.90;;;;;;5089467;28;20020;-85
2022/04/29 04:09:21;;;;;;;8.52;5.40;;;7.50;99.90;;;;;;5063726;28;20149;-82
2022/04/29 04:11:50;;;;;;;10.65;6.38;;;7.50;99.90;;;;;;5079541;28;20043;-84
2022/04/29 04:14:18;;;;;;;9.20;6.63;;;7.50;99.90;;;;;;5069914;28;20059;-85
2022/04/29 04:16:45;;;;;;;10.32;5.65;;;7.60;99.90;;;;;;5075701;28;20016;-84
2022/04/29 04:19:11;;;;;;;11.23;7.03;;;7.60;99.90;;;;;;5074635;28;20470;-84
2022/04/29 04:21:36;;;;;;;11.57;5.88;;;7.60;99.90;;;;;;5087230;28;20031;-85
2022/04/29 04:24:03;;;;;;;8.48;5.60;;;7.60;99.90;;;;;;5079159;28;20111;-84
2022/04/29 04:26:28;;;;;;;14.50;6.25;;;7.60;99.90;;;;;;5073383;28;20016;-84
2022/04/29 04:28:54;;;;;;;11.57;5.97;;;7.60;99.90;;;;;;5068810;28;20012;-84
2022/04/29 04:31:21;;;;;;;11.32;6.05;;;7.70;99.90;;;;;;5082711;28;20020;-83
2022/04/29 04:33:48;;;;;;;8.10;5.35;;;7.70;99.90;;;;;;5074610;28;20035;-84
2022/04/29 04:36:13;;;;;;;9.85;5.70;;;7.70;99.90;;;;;;5079721;28;20023;-83
2022/04/29 04:38:39;;;;;;;11.20;6.18;;;7.70;99.90;;;;;;5061220;28;20028;-84
2022/04/29 04:41:07;;;;;;;11.63;6.03;;;7.70;99.90;;;;;;5078148;28;20051;-84
2022/04/29 04:43:33;;;;;;;11.10;6.07;;;7.70;99.90;;;;;;5087151;28;20428;-83
2022/04/29 04:46:01;;;;;;;7.88;5.72;;;7.70;99.90;;;;;;5063061;28;20025;-86
2022/04/29 04:48:26;;;;;;;9.05;5.60;;;7.70;99.90;;;;;;5074001;28;20024;-85
2022/04/29 04:50:53;;;;;;;9.57;5.75;;;7.70;99.90;;;;;;5081577;28;20381;-84
2022/04/29 04:53:19;;;;;;;11.85;6.00;;;7.70;99.90;;;;;;5078097;28;20041;-84
2022/04/29 04:55:45;;;;;;;14.07;6.30;;;7.70;99.90;;;;;;5077633;28;20028;-84
2022/04/29 04:58:11;;;;;;;6.80;5.28;;;7.80;99.90;;;;;;5081266;28;20020;-86
2022/04/29 05:00:37;;;;;;;9.77;6.20;;;7.80;99.90;;;;;;5064200;28;20073;-81
2022/04/29 05:03:05;;;;;;;10.02;5.30;;;7.80;99.90;;;;;;5093789;28;20016;-82
2022/04/29 05:05:32;;;;;;;10.52;5.70;;;7.80;99.90;;;;;;5088560;28;20034;-83
2022/04/29 05:07:57;;;;;;;10.38;5.47;;;7.90;99.90;;;;;;5080543;28;20025;-84
2022/04/29 05:10:23;;;;;;;8.35;5.88;;;7.80;99.90;;;;;;5074789;28;20024;-87
2022/04/29 05:12:49;;;;;;;12.55;6.13;;;7.90;99.90;;;;;;5063794;28;20066;-82
2022/04/29 05:15:15;;;;;;;8.77;5.30;;;7.80;99.90;;;;;;5092484;28;20048;-83
2022/04/29 05:17:41;;;;;;;9.88;5.45;;;7.80;99.90;;;;;;5074836;28;20020;-84
2022/04/29 05:20:09;;;;;;;10.40;5.68;;;7.80;99.90;;;;;;5071660;28;20024;-83
2022/04/29 05:22:35;;;;;;;9.38;5.90;;;7.90;99.90;;;;;;5073654;28;20424;-84
2022/04/29 05:25:01;;;;;;;10.85;5.38;;;7.90;99.90;;;;;;5085607;28;20027;-85
2022/04/29 05:27:26;;;;;;;10.25;5.40;;;7.90;99.90;;;;;;5065518;28;20024;-85
2022/04/29 05:29:52;;;;;;;8.68;5.45;;;7.90;99.90;;;;;;5072797;28;20023;-83
2022/04/29 05:32:18;;;;;;;11.52;6.65;;;8.00;99.90;;;;;;5090856;28;20580;-82
2022/04/29 05:34:46;;;;;;;11.75;5.75;;;8.00;99.90;;;;;;5058340;28;20024;-83
2022/04/29 05:37:12;;;;;;;11.05;6.43;;;8.00;99.90;;;;;;5073467;28;20036;-84
2022/04/29 05:42:23;;;;;;;9.63;5.70;;;8.00;99.90;;;;;;5074446;28;20094;-83
2022/04/29 05:44:49;;;;;;;11.27;6.30;;;8.00;99.90;;;;;;5081862;28;20024;-84
2022/04/29 05:47:15;;;;;;;9.45;6.18;;;8.00;99.90;;;;;;5091875;28;20023;-84
2022/04/29 05:49:41;;;;;;;8.68;5.57;;;8.00;99.90;;;;;;5079366;28;20814;-82
2022/04/29 05:52:08;;;;;;;11.75;5.68;;;8.00;99.90;;;;;;5071290;28;20036;-82
2022/04/29 05:54:34;;;;;;;9.73;5.88;;;8.10;99.90;;;;;;5053546;28;20024;-84
2022/04/29 05:57:01;;;;;;;9.20;5.13;;;8.10;99.90;;;;;;5053354;28;20112;-85
2022/04/29 05:59:27;;;;;;;15.40;6.60;;;8.20;99.90;;;;;;5053845;28;20494;-83
2022/04/29 06:01:54;;;;;;;11.32;6.55;;;8.20;99.90;;;;;;5053762;28;20031;-83
2022/04/29 06:04:21;;;;;;;8.88;5.53;;;8.10;99.90;;;;;;5053031;28;20056;-82
2022/04/29 06:06:47;;;;;;;9.80;6.28;;;8.20;99.90;;;;;;5069768;28;20129;-82
2022/04/29 06:09:13;;;;;;;10.95;6.03;;;8.10;99.90;;;;;;5054921;28;20020;-81
2022/04/29 06:11:39;;;;;;;10.75;6.18;;;8.20;99.90;;;;;;5056264;28;20043;-81
2022/04/29 06:14:04;;;;;;;9.18;5.93;;;8.20;99.90;;;;;;5069812;28;20685;-82
2022/04/29 06:16:30;;;;;;;9.32;5.50;;;8.30;99.90;;;;;;5069704;28;20024;-82
2022/04/29 06:18:56;;;;;;;8.35;5.63;;;8.30;99.90;;;;;;5069668;28;20056;-83
2022/04/29 06:21:21;;;;;;;11.73;6.32;;;8.30;99.90;;;;;;5069329;28;20146;-83
2022/04/29 06:23:48;;;;;;;10.93;6.55;;;8.30;99.90;;;;;;5071375;28;20036;-82
2022/04/29 06:26:14;;;;;;;9.05;6.00;;;8.40;99.90;;;;;;5053581;28;20863;-82
2022/04/29 06:28:40;;;;;;;12.45;6.35;;;8.30;99.90;;;;;;5052575;28;20056;-82
2022/04/29 06:31:06;;;;;;;10.98;6.40;;;8.40;99.90;;;;;;5069495;28;20071;-83
2022/04/29 06:33:33;;;;;;;9.80;6.40;;;8.50;99.90;;;;;;5052512;28;20144;-81
2022/04/29 06:35:59;;;;;;;11.02;6.10;;;8.50;99.90;;;;;;5052731;28;20021;-81
2022/04/29 06:38:25;;;;;;;12.25;6.53;;;8.50;99.90;;;;;;5052682;28;20024;-82
2022/04/29 06:40:52;;;;;;;10.27;6.10;;;8.60;99.90;;;;;;5052732;28;20111;-82
2022/04/29 06:43:18;;;;;;;13.65;6.10;;;8.60;99.90;;;;;;5051999;28;20021;-82
2022/04/29 06:45:44;;;;;;;10.90;6.88;;;8.70;99.90;;;;;;5070336;28;20077;-83
2022/04/29 06:48:10;;;;;;;8.82;6.35;;;8.70;99.90;;;;;;5069523;28;20024;-83
2022/04/29 06:50:35;;;;;;;10.73;6.07;;;8.80;99.90;;;;;;5069226;28;20040;-82
2022/04/29 06:53:01;;;;;;;11.57;6.30;;;8.80;99.90;;;;;;5069134;28;20051;-83
2022/04/29 06:55:27;;;;;;;9.32;6.22;;;8.90;99.90;;;;;;5069985;28;20490;-83
2022/04/29 06:57:53;;;;;;;11.60;6.20;;;9.00;99.90;;;;;;5072375;28;20115;-83
2022/04/29 07:00:19;;;;;;;10.35;6.03;;;9.10;99.90;;;;;;5070524;28;20165;-82
2022/04/29 07:02:46;;;;;;;12.30;6.13;;;9.20;99.90;;;;;;5051965;28;20028;-83
2022/04/29 07:05:11;;;;;;;11.88;6.30;;;9.20;99.90;;;;;;5052225;28;20028;-81
2022/04/29 07:07:37;;;;;;;10.60;6.05;;;9.30;99.90;;;;;;5035755;28;20039;-82
2022/04/29 07:10:06;;;;;;;10.40;6.57;;;9.30;99.90;;;;;;5069546;28;20477;-83
2022/04/29 07:12:39;;;;;;;9.48;6.07;;;9.40;99.90;;;;;;5052332;28;20076;-85
2022/04/29 07:15:05;;;;;;;12.88;6.95;;;9.40;99.90;;;;;;5052598;28;20075;-85
2022/04/29 07:17:31;;;;;;;10.23;6.25;;;9.40;99.90;;;;;;5053176;28;20036;-85
2022/04/29 07:19:59;;;;;;;12.73;5.82;;;9.50;99.90;;;;;;5069704;28;20025;-84
2022/04/29 07:22:25;;;;;;;11.60;6.65;;;9.50;99.90;;;;;;5075323;28;20028;-84
2022/04/29 07:24:51;;;;;;;11.07;5.50;;;9.60;99.90;;;;;;5071326;28;20032;-86
2022/04/29 07:27:16;;;;;;;13.10;6.05;;;9.60;99.90;;;;;;5070414;28;20076;-84
2022/04/29 07:29:42;;;;;;;9.48;5.43;;;9.70;99.90;;;;;;5068995;28;20028;-85
2022/04/29 07:32:08;;;;;;;10.25;5.05;;;9.80;99.90;;;;;;5070210;28;20084;-86
2022/04/29 07:43:00;;;;;;;9.48;5.30;;;10.20;99.90;;;;;;5069993;28;20040;-84
2022/04/29 07:45:25;;;;;;;11.60;5.10;;;10.20;99.90;;;;;;5070230;28;20444;-85
2022/04/29 07:47:52;;;;;;;8.60;4.85;;;10.30;99.90;;;;;;5069977;28;20086;-83
2022/04/29 07:50:17;;;;;;;10.65;4.40;;;10.40;99.90;;;;;;5068526;28;20058;-84
2022/04/29 07:52:44;;;;;;;7.93;4.28;;;10.40;99.90;;;;;;5069282;28;20490;-83
2022/04/29 07:55:10;;;;;;;11.32;5.85;;;10.60;99.90;;;;;;5068703;28;20021;-84
2022/04/29 07:57:36;;;;;;;12.27;6.10;;;10.70;99.90;;;;;;5068861;28;20029;-83
2022/04/29 08:00:04;;;;;;;9.93;5.07;;;10.80;99.90;;;;;;5070027;28;20036;-83
2022/04/29 08:02:30;;;;;;;10.55;5.60;;;10.90;99.90;;;;;;5069955;28;20116;-85
2022/04/29 08:04:55;;;;;;;7.88;4.53;;;11.00;99.90;;;;;;5053199;28;20103;-82
2022/04/29 08:07:21;;;;;;;9.10;5.82;;;11.10;99.90;;;;;;5087469;28;20074;-82
2022/04/29 08:09:46;;;;;;;8.85;5.13;;;11.20;99.90;;;;;;5072992;28;20474;-83
2022/04/29 08:12:13;;;;;;;9.88;5.18;;;11.20;99.90;;;;;;5092552;28;20028;-83
2022/04/29 08:14:40;;;;;;;10.85;5.30;;;11.30;99.90;;;;;;5092952;28;20071;-83
2022/04/29 08:17:06;;;;;;;8.27;4.97;;;11.40;99.90;;;;;;5092894;28;20021;-83
2022/04/29 08:19:33;;;;;;;9.10;4.10;;;11.50;99.90;;;;;;5092577;28;20086;-83
2022/04/29 08:21:58;;;;;;;7.40;4.47;;;11.60;99.90;;;;;;5077803;28;20021;-84
2022/04/29 08:24:24;;;;;;;9.45;4.75;;;11.80;99.90;;;;;;5078475;28;20025;-84
2022/04/29 08:26:49;;;;;;;7.68;4.05;;;11.90;99.90;;;;;;5087507;28;20052;-84
2022/04/29 08:29:15;;;;;;;8.68;4.55;;;12.00;99.90;;;;;;5082672;28;20103;-83
2022/04/29 08:31:41;;;;;;;12.73;4.55;;;12.20;99.90;;;;;;5092259;28;20051;-84
2022/04/29 08:34:07;;;;;;;9.73;4.68;;;12.30;99.90;;;;;;5084678;28;20037;-86
2022/04/29 08:36:33;;;;;;;9.80;4.57;;;12.30;99.90;;;;;;5091840;28;20027;-86
2022/04/29 08:39:00;;;;;;;9.90;5.30;;;12.30;99.90;;;;;;5098664;28;20013;-85
2022/04/29 08:41:25;;;;;;;9.40;4.88;;;12.30;99.90;;;;;;5090339;28;20004;-86
2022/04/29 08:43:54;;;;;;;7.40;4.43;;;12.20;99.90;;;;;;5094405;28;20054;-86
2022/04/29 08:46:23;;;;;;;10.43;4.10;;;12.30;99.90;;;;;;5095912;28;20035;-86
2022/04/29 08:48:50;;;;;;;8.02;3.95;;;12.40;99.90;;;;;;5092678;28;20023;-83
2022/04/29 08:51:18;;;;;;;9.40;3.53;;;12.70;99.90;;;;;;5091993;28;20092;-81
2022/04/29 08:53:43;;;;;;;5.97;3.80;;;12.90;99.90;;;;;;5091848;28;20048;-80
2022/04/29 08:58:55;;;;;;;7.40;3.50;;;13.20;99.90;;;;;;5093570;28;20085;-81
2022/04/29 09:01:21;;;;;;;11.48;4.88;;;13.30;99.90;;;;;;5092730;28;20016;-82
2022/04/29 09:03:47;;;;;;;7.57;4.15;;;13.40;99.90;;;;;;5094359;28;20017;-82
2022/04/29 09:06:22;;;;;;;7.15;3.85;;;13.40;99.90;;;;;;5093310;28;20401;-82
2022/04/29 09:08:48;;;;;;;6.32;3.50;;;13.50;99.90;;;;;;5088293;28;20039;-82
2022/04/29 09:11:23;;;;;;;7.47;4.10;;;13.60;99.90;;;;;;5081360;28;20397;-81
2022/04/29 09:13:49;;;;;;;7.03;4.03;;;13.80;99.90;;;;;;5091458;28;20090;-82
2022/04/29 09:16:15;;;;;;;7.50;3.92;;;14.00;99.90;;;;;;5093004;28;20055;-82
2022/04/29 09:18:49;;;;;;;6.15;3.55;;;14.20;99.90;;;;;;5079735;28;20099;-82
2022/04/29 09:21:23;;;;;;;7.72;4.28;;;14.40;99.90;;;;;;5081385;28;20382;-83
2022/04/29 09:23:57;;;;;;;8.73;4.18;;;14.50;99.90;;;;;;5080678;28;20025;-84
2022/04/29 09:26:38;;;;;;;7.18;4.22;;;14.60;99.90;;;;;;5077863;28;20031;-84
2022/04/29 09:29:15;;;;;;;6.80;3.83;;;14.60;99.90;;;;;;5076039;28;20074;-84
2022/04/29 09:31:56;;;;;;;9.13;4.00;;;14.60;99.90;;;;;;5080524;28;20509;-85
2022/04/29 09:34:22;;;;;;;8.43;4.00;;;14.80;99.90;;;;;;5072402;28;20444;-84
2022/04/29 09:36:49;;;;;;;9.35;4.57;;;15.10;99.90;;;;;;5072484;28;20116;-84
2022/04/29 09:39:27;;;;;;;6.45;3.60;;;15.20;99.90;;;;;;5073494;28;20100;-85
2022/04/29 09:42:00;;;;;;;9.93;4.43;;;15.30;99.90;;;;;;5072798;28;20024;-84
2022/04/29 09:44:28;;;;;;;7.05;3.78;;;15.30;99.90;;;;;;5073107;28;20538;-82
2022/04/29 09:46:53;;;;;;;8.05;3.85;;;15.10;99.90;;;;;;5071278;28;20025;-84
2022/04/29 09:49:20;;;;;;;8.40;3.67;;;15.10;99.90;;;;;;5072775;28;20033;-86
2022/04/29 09:51:45;;;;;;;9.18;4.28;;;15.30;99.90;;;;;;5088602;28;20025;-84
2022/04/29 09:54:16;;;;;;;6.00;3.55;;;15.40;99.90;;;;;;5072214;28;20363;-85
2022/04/29 09:56:46;;;;;;;7.15;3.97;;;15.60;99.90;;;;;;5072673;28;20047;-84
2022/04/29 09:59:13;;;;;;;6.90;3.83;;;15.80;99.90;;;;;;5070624;28;20066;-83
2022/04/29 10:01:40;;;;;;;9.45;5.28;;;15.90;99.90;;;;;;5070958;28;20115;-86
2022/04/29 10:04:07;;;;;;;5.80;3.92;;;15.90;99.90;;;;;;5070748;28;20052;-84
2022/04/29 10:06:34;;;;;;;8.18;4.70;;;15.80;99.90;;;;;;5071186;28;20028;-92
2022/04/29 10:09:00;;;;;;;8.07;4.60;;;15.70;99.90;;;;;;5070614;28;20017;-84
2022/04/29 10:11:27;;;;;;;8.95;4.80;;;15.70;99.90;;;;;;5071417;28;20090;-84
2022/04/29 10:13:54;;;;;;;8.48;4.82;;;15.60;99.90;;;;;;5086732;28;20498;-83
2022/04/29 10:16:20;;;;;;;9.25;5.00;;;15.50;99.90;;;;;;5086785;28;20029;-84
2022/04/29 10:21:43;;;;;;;9.88;4.68;;;15.40;99.90;;;;;;5072216;28;20075;-85
2022/04/29 10:24:09;;;;;;;9.02;4.72;;;15.30;99.90;;;;;;5070205;28;20471;-84
2022/04/29 10:26:35;;;;;;;6.25;3.83;;;15.30;99.90;;;;;;5086559;28;20039;-85
2022/04/29 10:29:02;;;;;;;7.05;3.80;;;15.30;99.90;;;;;;5086349;28;20123;-86
2022/04/29 10:31:30;;;;;;;7.05;3.40;;;15.50;99.90;;;;;;5071581;28;20447;-84
2022/04/29 10:34:29;;;;;;;7.38;3.67;;;15.70;99.90;;;;;;5071565;28;20491;-87
2022/04/29 10:36:56;;;;;;;12.18;5.43;;;15.90;99.90;;;;;;5090818;28;20025;-84
2022/04/29 10:39:22;;;;;;;7.80;3.60;;;15.90;99.90;;;;;;5069637;28;20029;-88
2022/04/29 10:42:02;;;;;;;6.53;3.92;;;15.90;99.90;;;;;;5071308;28;20024;-84
2022/04/29 10:44:29;;;;;;;9.93;3.90;;;16.00;99.90;;;;;;5070927;28;20102;-84
2022/04/29 10:46:55;;;;;;;5.97;3.30;;;16.00;99.90;;;;;;5070808;28;20528;-83
2022/04/29 10:49:29;;;;;;;9.50;3.83;;;16.00;99.90;;;;;;5070737;28;20285;-83
2022/04/29 10:51:56;;;;;;;7.05;3.63;;;16.00;99.90;;;;;;5070268;28;20028;-85
2022/04/29 10:54:34;;;;;;;8.13;3.90;;;15.90;99.90;;;;;;5068790;28;20052;-86
2022/04/29 10:57:02;;;;;;;11.90;5.15;;;15.90;99.70;;;;;;5068479;28;20031;-83
2022/04/29 10:59:47;;;;;;;7.55;4.30;;;15.70;99.40;;;;;;5070183;28;20029;-83
2022/04/29 11:02:29;;;;;;;9.27;3.63;;;15.60;99.60;;;;;;5053336;28;20024;-87
2022/04/29 11:04:56;;;;;;;11.10;4.82;;;15.60;99.70;;;;;;5085149;28;20021;-87
2022/04/29 11:07:42;;;;;;;5.75;3.30;;;15.50;99.30;;;;;;5066546;28;20036;-86
2022/04/29 11:10:20;;;;;;;6.32;3.67;;;15.50;99.60;;;;;;5059469;28;20067;-89
2022/04/29 11:12:56;;;;;;;8.30;4.00;;;15.60;99.60;;;;;;5068937;28;20024;-86
2022/04/29 11:15:38;;;;;;;5.68;3.20;;;15.70;99.50;;;;;;5066679;28;20084;-85
2022/04/29 11:18:25;;;;;;;10.23;4.07;;;15.70;99.50;;;;;;5060425;28;20066;-86
2022/04/29 11:20:59;;;;;;;7.30;4.38;;;15.70;99.60;;;;;;5067376;28;20492;-86
2022/04/29 11:26:43;;;;;;;6.33;3.83;;;15.50;99.10;;;;;;5059834;28;20094;-83
2022/04/29 11:29:13;;;;;;;8.52;4.47;;;15.40;99.40;;;;;;5063249;28;20275;-87
2022/04/29 11:31:39;;;;;;;8.45;3.92;;;15.40;99.20;;;;;;5066441;28;20420;-85
2022/04/29 11:34:15;;;;;;;6.38;3.65;;;15.30;99.20;;;;;;5067449;28;20020;-85
2022/04/29 11:36:43;;;;;;;8.50;4.15;;;15.40;99.30;;;;;;5065093;28;20529;-85
2022/04/29 11:39:09;;;;;;;9.32;4.25;;;15.40;99.40;;;;;;5063904;28;20406;-84
2022/04/29 11:41:35;;;;;;;7.55;3.78;;;15.40;99.30;;;;;;5069464;28;20025;-84
2022/04/29 11:44:02;;;;;;;7.78;4.72;;;15.40;99.50;;;;;;5084888;28;20027;-83
2022/04/29 11:46:28;;;;;;;6.60;3.70;;;15.30;99.20;;;;;;5076619;28;20550;-84
2022/04/29 11:48:59;;;;;;;6.68;3.90;;;15.30;99.40;;;;;;5070023;28;20021;-84
2022/04/29 11:51:26;;;;;;;8.38;3.47;;;15.40;99.30;;;;;;5050829;28;20194;-84
2022/04/29 11:54:03;;;;;;;9.30;4.00;;;15.50;99.30;;;;;;5072862;28;20131;-85
2022/04/29 11:56:41;;;;;;;8.70;4.20;;;15.50;99.00;;;;;;5058289;28;20024;-85
2022/04/29 11:59:08;;;;;;;6.78;4.07;;;15.40;99.10;;;;;;5056684;28;20560;-84
2022/04/29 12:01:35;;;;;;;7.70;4.20;;;15.40;99.20;;;;;;5054608;28;20090;-83
2022/04/29 12:04:01;;;;;;;7.57;4.07;;;15.40;99.20;;;;;;5069742;28;20054;-83
2022/04/29 12:06:28;;;;;;;7.32;3.47;;;15.40;99.20;;;;;;5062655;28;20025;-83
2022/04/29 12:08:54;;;;;;;8.02;3.50;;;15.40;99.30;;;;;;5071513;28;20078;-82
2022/04/29 12:11:30;;;;;;;4.45;3.03;;;15.50;99.10;;;;;;5056085;28;20028;-83
2022/04/29 12:14:13;;;;;;;4.90;2.92;;;15.60;99.30;;;;;;5074708;28;20060;-83
2022/04/29 12:16:48;;;;;;;6.40;3.15;;;15.70;99.30;;;;;;5064207;28;20128;-84
2022/04/29 12:19:18;;;;;;;6.53;3.08;;;15.90;99.30;;;;;;5067615;28;20028;-86
2022/04/29 12:21:55;;;;;;;5.97;3.55;;;16.10;99.10;;;;;;5068711;28;20047;-83
2022/04/29 12:24:21;;;;;;;6.57;3.45;;;16.30;98.70;;;;;;5062410;28;20033;-82
2022/04/29 12:27:04;;;;;;;6.43;3.67;;;16.30;98.60;;;;;;5063263;28;20032;-84
2022/04/29 12:29:31;;;;;;;7.15;4.00;;;16.50;98.50;;;;;;5064111;28;20037;-83
2022/04/29 12:35:05;;;;;;;5.43;3.13;;;16.70;97.70;;;;;;5063294;28;20178;-83
2022/04/29 12:37:31;;;;;;;5.45;3.22;;;16.90;97.80;;;;;;5062111;28;20016;-83
2022/04/29 12:40:04;;;;;;;5.45;3.67;;;17.10;97.60;;;;;;5069144;28;20572;-83
2022/04/29 12:42:29;;;;;;;7.60;3.13;;;17.30;97.30;;;;;;5061110;28;20116;-83
2022/04/29 12:47:49;;;;;;;6.45;3.63;;;17.30;97.00;;;;;;5063972;28;20044;-82
2022/04/29 12:50:29;;;;;;;6.97;3.33;;;17.20;96.60;;;;;;5061521;28;20147;-83
2022/04/29 12:53:06;;;;;;;5.75;3.47;;;17.10;96.70;;;;;;5050984;28;20040;-83
2022/04/29 12:55:42;;;;;;;5.30;3.28;;;17.20;96.60;;;;;;5058920;28;20025;-83
2022/04/29 12:58:12;;;;;;;7.60;2.80;;;17.60;96.40;;;;;;5057567;28;20024;-83
2022/04/29 13:00:40;;;;;;;7.20;3.80;;;18.10;96.20;;;;;;5078988;28;20323;-83
2022/04/29 13:03:07;;;;;;;7.68;3.03;;;18.70;95.60;;;;;;5067456;28;20078;-83
2022/04/29 13:05:35;;;;;;;4.18;2.90;;;19.40;95.10;;;;;;5066208;28;20300;-83
2022/04/29 13:08:02;;;;;;;6.30;3.38;;;20.00;94.40;;;;;;5065327;28;20017;-83
2022/04/29 13:10:27;;;;;;;5.68;3.03;;;20.50;93.80;;;;;;5061978;28;20033;-83
2022/04/29 13:12:54;;;;;;;5.05;2.38;;;20.80;93.40;;;;;;5067463;28;20031;-83
2022/04/29 13:15:20;;;;;;;6.22;3.22;;;21.10;93.20;;;;;;5066596;28;20045;-85
2022/04/29 13:17:45;;;;;;;5.28;2.80;;;21.50;92.30;;;;;;5067536;28;20035;-85
2022/04/29 13:20:11;;;;;;;4.68;2.58;;;21.60;91.70;;;;;;5050406;28;20036;-85
2022/04/29 13:22:38;;;;;;;5.35;3.33;;;21.70;91.60;;;;;;5079401;28;20119;-86
2022/04/29 13:25:08;;;;;;;4.03;2.38;;;21.90;90.30;;;;;;5076141;28;20032;-85